sensor_id;sensor_type;location;lat;lon;timestamp;P1;durP1;ratioP1;P2;durP2;ratioP2
40511;SDS011;26213;52.446;20.706;2023-04-26T00:01:10;3.88;;;1.70;;
40511;SDS011;26213;52.446;20.706;2023-04-26T00:03:36;3.00;;;2.03;;
40511;SDS011;26213;52.446;20.706;2023-04-26T00:06:01;4.80;;;2.05;;
40511;SDS011;26213;52.446;20.706;2023-04-26T00:08:29;4.65;;;2.15;;
40511;SDS011;26213;52.446;20.706;2023-04-26T00:10:55;5.25;;;2.20;;
40511;SDS011;26213;52.446;20.706;2023-04-26T00:13:20;4.32;;;2.28;;
40511;SDS011;26213;52.446;20.706;2023-04-26T00:15:46;5.53;;;2.45;;
40511;SDS011;26213;52.446;20.706;2023-04-26T00:18:11;3.90;;;1.55;;
40511;SDS011;26213;52.446;20.706;2023-04-26T00:20:37;2.70;;;1.95;;
40511;SDS011;26213;52.446;20.706;2023-04-26T00:23:03;3.85;;;2.00;;
40511;SDS011;26213;52.446;20.706;2023-04-26T00:25:28;3.13;;;2.08;;
40511;SDS011;26213;52.446;20.706;2023-04-26T00:27:54;4.00;;;2.03;;
40511;SDS011;26213;52.446;20.706;2023-04-26T00:30:20;5.03;;;2.45;;
40511;SDS011;26213;52.446;20.706;2023-04-26T00:32:45;6.38;;;2.60;;
40511;SDS011;26213;52.446;20.706;2023-04-26T00:35:11;4.60;;;2.25;;
40511;SDS011;26213;52.446;20.706;2023-04-26T00:37:37;6.75;;;2.40;;
40511;SDS011;26213;52.446;20.706;2023-04-26T00:40:02;3.30;;;1.95;;
40511;SDS011;26213;52.446;20.706;2023-04-26T00:42:30;7.55;;;2.90;;
40511;SDS011;26213;52.446;20.706;2023-04-26T00:44:55;12.23;;;4.82;;
40511;SDS011;26213;52.446;20.706;2023-04-26T00:47:21;4.20;;;2.65;;
40511;SDS011;26213;52.446;20.706;2023-04-26T00:49:48;5.93;;;2.38;;
40511;SDS011;26213;52.446;20.706;2023-04-26T00:52:13;4.32;;;2.20;;
40511;SDS011;26213;52.446;20.706;2023-04-26T00:54:39;4.22;;;1.75;;
40511;SDS011;26213;52.446;20.706;2023-04-26T00:57:04;5.43;;;2.25;;
40511;SDS011;26213;52.446;20.706;2023-04-26T00:59:31;4.40;;;1.95;;
40511;SDS011;26213;52.446;20.706;2023-04-26T01:01:58;4.47;;;2.13;;
40511;SDS011;26213;52.446;20.706;2023-04-26T01:04:24;3.17;;;1.77;;
40511;SDS011;26213;52.446;20.706;2023-04-26T01:06:51;1.92;;;1.55;;
40511;SDS011;26213;52.446;20.706;2023-04-26T01:09:16;2.63;;;1.85;;
40511;SDS011;26213;52.446;20.706;2023-04-26T01:11:43;5.50;;;2.80;;
40511;SDS011;26213;52.446;20.706;2023-04-26T01:14:08;4.43;;;2.40;;
40511;SDS011;26213;52.446;20.706;2023-04-26T01:16:34;6.95;;;2.30;;
40511;SDS011;26213;52.446;20.706;2023-04-26T01:19:10;3.63;;;1.83;;
40511;SDS011;26213;52.446;20.706;2023-04-26T01:21:39;5.35;;;3.08;;
40511;SDS011;26213;52.446;20.706;2023-04-26T01:24:05;3.28;;;2.10;;
40511;SDS011;26213;52.446;20.706;2023-04-26T01:26:30;3.55;;;2.15;;
40511;SDS011;26213;52.446;20.706;2023-04-26T01:28:56;7.13;;;2.65;;
40511;SDS011;26213;52.446;20.706;2023-04-26T01:31:22;6.13;;;2.20;;
40511;SDS011;26213;52.446;20.706;2023-04-26T01:33:48;2.65;;;2.05;;
40511;SDS011;26213;52.446;20.706;2023-04-26T01:36:13;5.90;;;3.22;;
40511;SDS011;26213;52.446;20.706;2023-04-26T01:38:39;10.05;;;3.97;;
40511;SDS011;26213;52.446;20.706;2023-04-26T01:41:04;10.38;;;2.60;;
40511;SDS011;26213;52.446;20.706;2023-04-26T01:43:29;5.97;;;3.08;;
40511;SDS011;26213;52.446;20.706;2023-04-26T01:45:55;4.25;;;2.55;;
40511;SDS011;26213;52.446;20.706;2023-04-26T01:48:20;7.97;;;2.80;;
40511;SDS011;26213;52.446;20.706;2023-04-26T01:50:46;5.97;;;2.85;;
40511;SDS011;26213;52.446;20.706;2023-04-26T01:53:11;8.93;;;3.05;;
40511;SDS011;26213;52.446;20.706;2023-04-26T01:55:36;8.75;;;4.30;;
40511;SDS011;26213;52.446;20.706;2023-04-26T01:58:02;8.60;;;3.40;;
40511;SDS011;26213;52.446;20.706;2023-04-26T02:00:28;12.77;;;4.03;;
40511;SDS011;26213;52.446;20.706;2023-04-26T02:02:54;8.05;;;3.47;;
40511;SDS011;26213;52.446;20.706;2023-04-26T02:05:20;6.00;;;3.55;;
40511;SDS011;26213;52.446;20.706;2023-04-26T02:07:45;10.98;;;3.60;;
40511;SDS011;26213;52.446;20.706;2023-04-26T02:10:10;8.02;;;4.43;;
40511;SDS011;26213;52.446;20.706;2023-04-26T02:12:36;14.30;;;4.53;;
40511;SDS011;26213;52.446;20.706;2023-04-26T02:15:01;11.13;;;3.75;;
40511;SDS011;26213;52.446;20.706;2023-04-26T02:17:27;9.48;;;5.18;;
40511;SDS011;26213;52.446;20.706;2023-04-26T02:19:53;16.02;;;4.93;;
40511;SDS011;26213;52.446;20.706;2023-04-26T02:22:19;7.40;;;4.20;;
40511;SDS011;26213;52.446;20.706;2023-04-26T02:27:13;10.13;;;4.30;;
40511;SDS011;26213;52.446;20.706;2023-04-26T02:29:39;20.75;;;5.32;;
40511;SDS011;26213;52.446;20.706;2023-04-26T02:32:04;13.90;;;4.53;;
40511;SDS011;26213;52.446;20.706;2023-04-26T02:34:30;10.82;;;4.88;;
40511;SDS011;26213;52.446;20.706;2023-04-26T02:36:55;10.70;;;4.45;;
40511;SDS011;26213;52.446;20.706;2023-04-26T02:39:21;8.65;;;4.05;;
40511;SDS011;26213;52.446;20.706;2023-04-26T02:41:46;11.40;;;3.83;;
40511;SDS011;26213;52.446;20.706;2023-04-26T02:44:12;15.23;;;5.32;;
40511;SDS011;26213;52.446;20.706;2023-04-26T02:46:37;11.25;;;4.78;;
40511;SDS011;26213;52.446;20.706;2023-04-26T02:49:03;13.52;;;5.47;;
40511;SDS011;26213;52.446;20.706;2023-04-26T02:51:28;17.52;;;6.45;;
40511;SDS011;26213;52.446;20.706;2023-04-26T02:53:53;15.85;;;5.95;;
40511;SDS011;26213;52.446;20.706;2023-04-26T02:56:19;15.65;;;6.22;;
40511;SDS011;26213;52.446;20.706;2023-04-26T02:58:44;15.98;;;5.85;;
40511;SDS011;26213;52.446;20.706;2023-04-26T03:01:10;15.00;;;6.30;;
40511;SDS011;26213;52.446;20.706;2023-04-26T03:03:37;12.48;;;6.45;;
40511;SDS011;26213;52.446;20.706;2023-04-26T03:06:02;12.27;;;6.50;;
40511;SDS011;26213;52.446;20.706;2023-04-26T03:08:28;21.58;;;6.65;;
40511;SDS011;26213;52.446;20.706;2023-04-26T03:10:53;14.65;;;5.85;;
40511;SDS011;26213;52.446;20.706;2023-04-26T03:13:21;13.05;;;6.20;;
40511;SDS011;26213;52.446;20.706;2023-04-26T03:15:47;16.10;;;6.07;;
40511;SDS011;26213;52.446;20.706;2023-04-26T03:18:14;13.77;;;5.80;;
40511;SDS011;26213;52.446;20.706;2023-04-26T03:20:40;12.98;;;5.80;;
40511;SDS011;26213;52.446;20.706;2023-04-26T03:23:06;12.90;;;6.20;;
40511;SDS011;26213;52.446;20.706;2023-04-26T03:25:32;12.20;;;6.30;;
40511;SDS011;26213;52.446;20.706;2023-04-26T03:27:58;11.90;;;4.55;;
40511;SDS011;26213;52.446;20.706;2023-04-26T03:30:23;13.05;;;5.68;;
40511;SDS011;26213;52.446;20.706;2023-04-26T03:32:48;13.10;;;4.93;;
40511;SDS011;26213;52.446;20.706;2023-04-26T03:35:14;11.82;;;5.75;;
40511;SDS011;26213;52.446;20.706;2023-04-26T03:37:39;15.80;;;5.35;;
40511;SDS011;26213;52.446;20.706;2023-04-26T03:40:06;15.60;;;7.20;;
40511;SDS011;26213;52.446;20.706;2023-04-26T03:42:32;12.30;;;6.03;;
40511;SDS011;26213;52.446;20.706;2023-04-26T03:44:58;20.23;;;8.73;;
40511;SDS011;26213;52.446;20.706;2023-04-26T03:47:23;12.25;;;4.80;;
40511;SDS011;26213;52.446;20.706;2023-04-26T03:49:49;18.08;;;6.05;;
40511;SDS011;26213;52.446;20.706;2023-04-26T03:52:14;19.10;;;6.03;;
40511;SDS011;26213;52.446;20.706;2023-04-26T03:54:40;11.88;;;5.07;;
40511;SDS011;26213;52.446;20.706;2023-04-26T03:57:06;11.90;;;5.20;;
40511;SDS011;26213;52.446;20.706;2023-04-26T03:59:31;11.60;;;6.30;;
40511;SDS011;26213;52.446;20.706;2023-04-26T04:01:57;11.18;;;5.43;;
40511;SDS011;26213;52.446;20.706;2023-04-26T04:04:22;10.88;;;6.03;;
40511;SDS011;26213;52.446;20.706;2023-04-26T04:06:47;15.20;;;5.32;;
40511;SDS011;26213;52.446;20.706;2023-04-26T04:09:13;13.48;;;5.25;;
40511;SDS011;26213;52.446;20.706;2023-04-26T04:11:39;11.07;;;5.03;;
40511;SDS011;26213;52.446;20.706;2023-04-26T04:14:04;9.60;;;4.63;;
40511;SDS011;26213;52.446;20.706;2023-04-26T04:16:30;18.40;;;4.53;;
40511;SDS011;26213;52.446;20.706;2023-04-26T04:18:55;11.45;;;4.50;;
40511;SDS011;26213;52.446;20.706;2023-04-26T04:21:20;17.48;;;5.15;;
40511;SDS011;26213;52.446;20.706;2023-04-26T04:23:46;14.23;;;4.85;;
40511;SDS011;26213;52.446;20.706;2023-04-26T04:26:12;15.75;;;4.55;;
40511;SDS011;26213;52.446;20.706;2023-04-26T04:28:38;12.50;;;4.45;;
40511;SDS011;26213;52.446;20.706;2023-04-26T04:31:05;18.50;;;5.80;;
40511;SDS011;26213;52.446;20.706;2023-04-26T04:33:33;13.43;;;5.13;;
40511;SDS011;26213;52.446;20.706;2023-04-26T04:35:58;13.30;;;4.72;;
40511;SDS011;26213;52.446;20.706;2023-04-26T04:38:24;10.43;;;4.78;;
40511;SDS011;26213;52.446;20.706;2023-04-26T04:40:50;10.88;;;4.85;;
40511;SDS011;26213;52.446;20.706;2023-04-26T04:43:15;15.80;;;5.38;;
40511;SDS011;26213;52.446;20.706;2023-04-26T04:45:41;11.50;;;5.57;;
40511;SDS011;26213;52.446;20.706;2023-04-26T04:48:07;15.27;;;5.43;;
40511;SDS011;26213;52.446;20.706;2023-04-26T04:50:33;12.10;;;5.38;;
40511;SDS011;26213;52.446;20.706;2023-04-26T04:52:59;10.48;;;4.75;;
40511;SDS011;26213;52.446;20.706;2023-04-26T04:55:25;11.05;;;4.20;;
40511;SDS011;26213;52.446;20.706;2023-04-26T04:57:51;10.93;;;4.18;;
40511;SDS011;26213;52.446;20.706;2023-04-26T05:00:16;10.95;;;3.78;;
40511;SDS011;26213;52.446;20.706;2023-04-26T05:02:42;10.25;;;4.43;;
40511;SDS011;26213;52.446;20.706;2023-04-26T05:05:07;10.63;;;4.32;;
40511;SDS011;26213;52.446;20.706;2023-04-26T05:07:34;11.70;;;4.07;;
40511;SDS011;26213;52.446;20.706;2023-04-26T05:10:00;10.32;;;3.75;;
40511;SDS011;26213;52.446;20.706;2023-04-26T05:12:26;14.38;;;4.00;;
40511;SDS011;26213;52.446;20.706;2023-04-26T05:14:51;9.52;;;3.88;;
40511;SDS011;26213;52.446;20.706;2023-04-26T05:17:16;11.10;;;3.63;;
40511;SDS011;26213;52.446;20.706;2023-04-26T05:19:42;14.80;;;3.72;;
40511;SDS011;26213;52.446;20.706;2023-04-26T05:22:07;7.95;;;3.28;;
40511;SDS011;26213;52.446;20.706;2023-04-26T05:24:33;15.85;;;4.00;;
40511;SDS011;26213;52.446;20.706;2023-04-26T05:26:58;9.48;;;3.30;;
40511;SDS011;26213;52.446;20.706;2023-04-26T05:29:27;8.98;;;3.83;;
40511;SDS011;26213;52.446;20.706;2023-04-26T05:31:54;10.05;;;3.15;;
40511;SDS011;26213;52.446;20.706;2023-04-26T05:34:19;7.57;;;3.13;;
40511;SDS011;26213;52.446;20.706;2023-04-26T05:36:44;12.60;;;3.70;;
40511;SDS011;26213;52.446;20.706;2023-04-26T05:39:10;17.00;;;3.92;;
40511;SDS011;26213;52.446;20.706;2023-04-26T05:41:36;13.50;;;3.35;;
40511;SDS011;26213;52.446;20.706;2023-04-26T05:44:02;11.63;;;3.25;;
40511;SDS011;26213;52.446;20.706;2023-04-26T05:46:27;9.50;;;4.90;;
40511;SDS011;26213;52.446;20.706;2023-04-26T05:48:52;11.77;;;3.50;;
40511;SDS011;26213;52.446;20.706;2023-04-26T05:51:19;9.95;;;2.70;;
40511;SDS011;26213;52.446;20.706;2023-04-26T05:53:45;9.40;;;2.53;;
40511;SDS011;26213;52.446;20.706;2023-04-26T05:56:10;16.20;;;3.35;;
40511;SDS011;26213;52.446;20.706;2023-04-26T05:58:35;8.90;;;2.97;;
40511;SDS011;26213;52.446;20.706;2023-04-26T06:01:01;10.05;;;3.05;;
40511;SDS011;26213;52.446;20.706;2023-04-26T06:03:26;11.95;;;3.05;;
40511;SDS011;26213;52.446;20.706;2023-04-26T06:05:52;9.30;;;3.20;;
40511;SDS011;26213;52.446;20.706;2023-04-26T06:08:17;9.35;;;3.55;;
40511;SDS011;26213;52.446;20.706;2023-04-26T06:10:42;9.07;;;3.03;;
40511;SDS011;26213;52.446;20.706;2023-04-26T06:13:08;9.65;;;3.15;;
40511;SDS011;26213;52.446;20.706;2023-04-26T06:15:33;12.32;;;3.15;;
40511;SDS011;26213;52.446;20.706;2023-04-26T06:17:59;13.10;;;3.13;;
40511;SDS011;26213;52.446;20.706;2023-04-26T06:20:24;15.30;;;3.78;;
40511;SDS011;26213;52.446;20.706;2023-04-26T06:22:50;7.30;;;2.75;;
40511;SDS011;26213;52.446;20.706;2023-04-26T06:25:15;11.20;;;2.75;;
40511;SDS011;26213;52.446;20.706;2023-04-26T06:27:41;7.88;;;2.72;;
40511;SDS011;26213;52.446;20.706;2023-04-26T06:30:06;14.35;;;3.08;;
40511;SDS011;26213;52.446;20.706;2023-04-26T06:32:32;11.57;;;2.63;;
40511;SDS011;26213;52.446;20.706;2023-04-26T06:34:58;7.90;;;2.60;;
40511;SDS011;26213;52.446;20.706;2023-04-26T06:37:23;7.82;;;2.53;;
40511;SDS011;26213;52.446;20.706;2023-04-26T06:39:48;8.32;;;2.22;;
40511;SDS011;26213;52.446;20.706;2023-04-26T06:42:14;9.93;;;2.80;;
40511;SDS011;26213;52.446;20.706;2023-04-26T06:44:39;19.58;;;2.70;;
40511;SDS011;26213;52.446;20.706;2023-04-26T06:47:05;11.02;;;2.83;;
40511;SDS011;26213;52.446;20.706;2023-04-26T06:49:33;7.30;;;3.33;;
40511;SDS011;26213;52.446;20.706;2023-04-26T06:51:59;8.05;;;2.17;;
40511;SDS011;26213;52.446;20.706;2023-04-26T06:54:28;12.35;;;3.13;;
40511;SDS011;26213;52.446;20.706;2023-04-26T06:56:54;14.77;;;2.95;;
40511;SDS011;26213;52.446;20.706;2023-04-26T06:59:20;8.07;;;2.35;;
40511;SDS011;26213;52.446;20.706;2023-04-26T07:01:46;8.70;;;2.28;;
40511;SDS011;26213;52.446;20.706;2023-04-26T07:04:11;10.68;;;2.97;;
40511;SDS011;26213;52.446;20.706;2023-04-26T07:06:37;13.57;;;2.90;;
40511;SDS011;26213;52.446;20.706;2023-04-26T07:09:03;9.85;;;3.03;;
40511;SDS011;26213;52.446;20.706;2023-04-26T07:11:29;9.52;;;2.85;;
40511;SDS011;26213;52.446;20.706;2023-04-26T07:13:55;6.75;;;2.10;;
40511;SDS011;26213;52.446;20.706;2023-04-26T07:16:20;12.18;;;3.13;;
40511;SDS011;26213;52.446;20.706;2023-04-26T07:18:46;10.88;;;3.70;;
40511;SDS011;26213;52.446;20.706;2023-04-26T07:21:15;13.52;;;3.35;;
40511;SDS011;26213;52.446;20.706;2023-04-26T07:23:41;7.82;;;2.63;;
40511;SDS011;26213;52.446;20.706;2023-04-26T07:26:06;9.93;;;3.05;;
40511;SDS011;26213;52.446;20.706;2023-04-26T07:28:34;11.27;;;3.80;;
40511;SDS011;26213;52.446;20.706;2023-04-26T07:31:00;14.68;;;2.90;;
40511;SDS011;26213;52.446;20.706;2023-04-26T07:33:25;7.53;;;2.83;;
40511;SDS011;26213;52.446;20.706;2023-04-26T07:35:58;7.18;;;2.90;;
40511;SDS011;26213;52.446;20.706;2023-04-26T07:38:25;12.55;;;3.45;;
40511;SDS011;26213;52.446;20.706;2023-04-26T07:40:51;8.80;;;2.67;;
40511;SDS011;26213;52.446;20.706;2023-04-26T07:43:19;11.32;;;2.45;;
40511;SDS011;26213;52.446;20.706;2023-04-26T07:45:45;10.38;;;3.28;;
40511;SDS011;26213;52.446;20.706;2023-04-26T07:48:10;12.90;;;2.60;;
40511;SDS011;26213;52.446;20.706;2023-04-26T07:50:36;11.65;;;3.85;;
40511;SDS011;26213;52.446;20.706;2023-04-26T07:53:02;8.60;;;2.83;;
40511;SDS011;26213;52.446;20.706;2023-04-26T07:55:27;11.38;;;2.83;;
40511;SDS011;26213;52.446;20.706;2023-04-26T07:57:53;8.70;;;2.22;;
40511;SDS011;26213;52.446;20.706;2023-04-26T08:00:18;9.50;;;2.50;;
40511;SDS011;26213;52.446;20.706;2023-04-26T08:02:46;11.80;;;3.55;;
40511;SDS011;26213;52.446;20.706;2023-04-26T08:05:12;13.05;;;3.15;;
40511;SDS011;26213;52.446;20.706;2023-04-26T08:07:38;8.57;;;3.05;;
40511;SDS011;26213;52.446;20.706;2023-04-26T08:10:04;9.75;;;2.40;;
40511;SDS011;26213;52.446;20.706;2023-04-26T08:12:31;8.85;;;2.70;;
40511;SDS011;26213;52.446;20.706;2023-04-26T08:14:58;13.05;;;3.50;;
40511;SDS011;26213;52.446;20.706;2023-04-26T08:17:24;9.00;;;3.20;;
40511;SDS011;26213;52.446;20.706;2023-04-26T08:19:50;11.32;;;2.80;;
40511;SDS011;26213;52.446;20.706;2023-04-26T08:22:16;10.75;;;3.58;;
40511;SDS011;26213;52.446;20.706;2023-04-26T08:24:41;8.40;;;3.05;;
40511;SDS011;26213;52.446;20.706;2023-04-26T08:27:11;9.43;;;2.53;;
40511;SDS011;26213;52.446;20.706;2023-04-26T08:29:37;11.65;;;2.78;;
40511;SDS011;26213;52.446;20.706;2023-04-26T08:32:02;7.90;;;2.40;;
40511;SDS011;26213;52.446;20.706;2023-04-26T08:34:28;8.13;;;2.35;;
40511;SDS011;26213;52.446;20.706;2023-04-26T08:36:54;8.60;;;2.25;;
40511;SDS011;26213;52.446;20.706;2023-04-26T08:39:20;12.02;;;2.75;;
40511;SDS011;26213;52.446;20.706;2023-04-26T08:41:48;5.28;;;2.80;;
40511;SDS011;26213;52.446;20.706;2023-04-26T08:44:18;8.75;;;3.05;;
40511;SDS011;26213;52.446;20.706;2023-04-26T08:47:05;8.48;;;2.78;;
40511;SDS011;26213;52.446;20.706;2023-04-26T08:49:40;4.07;;;2.30;;
40511;SDS011;26213;52.446;20.706;2023-04-26T08:52:08;5.78;;;1.88;;
40511;SDS011;26213;52.446;20.706;2023-04-26T08:57:01;4.55;;;2.17;;
40511;SDS011;26213;52.446;20.706;2023-04-26T08:59:28;9.55;;;2.38;;
40511;SDS011;26213;52.446;20.706;2023-04-26T09:01:55;8.68;;;2.47;;
40511;SDS011;26213;52.446;20.706;2023-04-26T09:04:22;7.28;;;2.00;;
40511;SDS011;26213;52.446;20.706;2023-04-26T09:06:47;7.80;;;3.10;;
40511;SDS011;26213;52.446;20.706;2023-04-26T09:09:14;7.53;;;2.22;;
40511;SDS011;26213;52.446;20.706;2023-04-26T09:11:56;9.32;;;2.40;;
40511;SDS011;26213;52.446;20.706;2023-04-26T09:14:23;7.25;;;2.78;;
40511;SDS011;26213;52.446;20.706;2023-04-26T09:16:49;6.70;;;2.65;;
40511;SDS011;26213;52.446;20.706;2023-04-26T09:19:16;6.65;;;1.63;;
40511;SDS011;26213;52.446;20.706;2023-04-26T09:21:42;6.43;;;2.17;;
40511;SDS011;26213;52.446;20.706;2023-04-26T09:24:10;10.10;;;2.25;;
40511;SDS011;26213;52.446;20.706;2023-04-26T09:26:36;4.07;;;1.83;;
40511;SDS011;26213;52.446;20.706;2023-04-26T09:29:11;5.13;;;2.35;;
40511;SDS011;26213;52.446;20.706;2023-04-26T09:31:39;5.80;;;2.33;;
40511;SDS011;26213;52.446;20.706;2023-04-26T09:34:14;4.25;;;1.80;;
40511;SDS011;26213;52.446;20.706;2023-04-26T09:36:50;4.93;;;1.80;;
40511;SDS011;26213;52.446;20.706;2023-04-26T09:39:29;10.70;;;2.20;;
40511;SDS011;26213;52.446;20.706;2023-04-26T09:41:57;15.68;;;4.35;;
40511;SDS011;26213;52.446;20.706;2023-04-26T09:44:23;8.93;;;2.45;;
40511;SDS011;26213;52.446;20.706;2023-04-26T09:46:56;5.88;;;1.90;;
40511;SDS011;26213;52.446;20.706;2023-04-26T09:49:47;7.05;;;1.80;;
40511;SDS011;26213;52.446;20.706;2023-04-26T09:52:15;13.55;;;3.10;;
40511;SDS011;26213;52.446;20.706;2023-04-26T09:54:49;9.40;;;2.03;;
40511;SDS011;26213;52.446;20.706;2023-04-26T09:57:17;10.63;;;2.95;;
40511;SDS011;26213;52.446;20.706;2023-04-26T09:59:45;11.23;;;2.63;;
40511;SDS011;26213;52.446;20.706;2023-04-26T10:02:15;7.22;;;2.50;;
40511;SDS011;26213;52.446;20.706;2023-04-26T10:04:43;9.50;;;2.30;;
40511;SDS011;26213;52.446;20.706;2023-04-26T10:07:11;8.25;;;3.22;;
40511;SDS011;26213;52.446;20.706;2023-04-26T10:09:37;9.15;;;2.42;;
40511;SDS011;26213;52.446;20.706;2023-04-26T10:12:02;5.88;;;1.92;;
40511;SDS011;26213;52.446;20.706;2023-04-26T10:14:28;8.73;;;3.22;;
40511;SDS011;26213;52.446;20.706;2023-04-26T10:16:54;10.70;;;3.60;;
40511;SDS011;26213;52.446;20.706;2023-04-26T10:19:21;7.15;;;2.33;;
40511;SDS011;26213;52.446;20.706;2023-04-26T10:21:46;9.30;;;2.88;;
40511;SDS011;26213;52.446;20.706;2023-04-26T10:24:13;9.98;;;3.13;;
40511;SDS011;26213;52.446;20.706;2023-04-26T10:26:51;12.25;;;2.78;;
40511;SDS011;26213;52.446;20.706;2023-04-26T10:29:19;8.32;;;3.30;;
40511;SDS011;26213;52.446;20.706;2023-04-26T10:34:29;10.68;;;3.53;;
40511;SDS011;26213;52.446;20.706;2023-04-26T10:37:11;7.80;;;3.20;;
40511;SDS011;26213;52.446;20.706;2023-04-26T10:39:41;12.38;;;2.35;;
40511;SDS011;26213;52.446;20.706;2023-04-26T10:44:50;24.58;;;10.68;;
40511;SDS011;26213;52.446;20.706;2023-04-26T10:47:34;20.05;;;9.38;;
40511;SDS011;26213;52.446;20.706;2023-04-26T10:50:07;25.70;;;12.87;;
40511;SDS011;26213;52.446;20.706;2023-04-26T10:53:19;8.18;;;4.85;;
40511;SDS011;26213;52.446;20.706;2023-04-26T10:58:29;11.70;;;4.55;;
40511;SDS011;26213;52.446;20.706;2023-04-26T11:01:08;15.93;;;7.30;;
40511;SDS011;26213;52.446;20.706;2023-04-26T11:03:39;9.25;;;4.53;;
40511;SDS011;26213;52.446;20.706;2023-04-26T11:06:05;6.90;;;2.57;;
40511;SDS011;26213;52.446;20.706;2023-04-26T11:08:31;7.22;;;2.55;;
40511;SDS011;26213;52.446;20.706;2023-04-26T11:13:23;8.45;;;2.42;;
40511;SDS011;26213;52.446;20.706;2023-04-26T11:15:52;9.27;;;2.83;;
40511;SDS011;26213;52.446;20.706;2023-04-26T11:18:19;4.03;;;1.63;;
40511;SDS011;26213;52.446;20.706;2023-04-26T11:20:45;4.80;;;1.80;;
40511;SDS011;26213;52.446;20.706;2023-04-26T11:23:10;9.90;;;3.45;;
40511;SDS011;26213;52.446;20.706;2023-04-26T11:25:38;30.38;;;12.27;;
40511;SDS011;26213;52.446;20.706;2023-04-26T11:28:03;8.30;;;3.95;;
40511;SDS011;26213;52.446;20.706;2023-04-26T11:30:30;17.25;;;4.03;;
40511;SDS011;26213;52.446;20.706;2023-04-26T11:32:59;11.55;;;4.55;;
40511;SDS011;26213;52.446;20.706;2023-04-26T11:35:26;7.95;;;2.95;;
40511;SDS011;26213;52.446;20.706;2023-04-26T11:37:53;12.77;;;4.63;;
40511;SDS011;26213;52.446;20.706;2023-04-26T11:40:22;20.92;;;9.93;;
40511;SDS011;26213;52.446;20.706;2023-04-26T11:42:47;32.78;;;15.00;;
40511;SDS011;26213;52.446;20.706;2023-04-26T11:45:16;26.02;;;7.55;;
40511;SDS011;26213;52.446;20.706;2023-04-26T11:47:41;13.23;;;5.57;;
40511;SDS011;26213;52.446;20.706;2023-04-26T11:50:08;11.70;;;4.50;;
40511;SDS011;26213;52.446;20.706;2023-04-26T11:52:34;14.32;;;4.93;;
40511;SDS011;26213;52.446;20.706;2023-04-26T11:55:03;13.40;;;5.05;;
40511;SDS011;26213;52.446;20.706;2023-04-26T11:57:33;18.00;;;6.80;;
40511;SDS011;26213;52.446;20.706;2023-04-26T12:00:12;20.15;;;6.95;;
40511;SDS011;26213;52.446;20.706;2023-04-26T12:02:48;22.48;;;8.18;;
40511;SDS011;26213;52.446;20.706;2023-04-26T12:05:22;15.70;;;4.65;;
40511;SDS011;26213;52.446;20.706;2023-04-26T12:07:50;24.33;;;6.95;;
40511;SDS011;26213;52.446;20.706;2023-04-26T12:10:17;12.18;;;4.20;;
40511;SDS011;26213;52.446;20.706;2023-04-26T12:12:47;10.48;;;3.83;;
40511;SDS011;26213;52.446;20.706;2023-04-26T12:15:14;10.77;;;3.85;;
40511;SDS011;26213;52.446;20.706;2023-04-26T12:17:49;13.80;;;5.55;;
40511;SDS011;26213;52.446;20.706;2023-04-26T12:20:16;18.13;;;8.05;;
40511;SDS011;26213;52.446;20.706;2023-04-26T12:22:51;11.65;;;3.95;;
40511;SDS011;26213;52.446;20.706;2023-04-26T12:25:23;11.15;;;4.65;;
40511;SDS011;26213;52.446;20.706;2023-04-26T12:27:48;11.18;;;4.43;;
40511;SDS011;26213;52.446;20.706;2023-04-26T12:30:13;9.00;;;3.25;;
40511;SDS011;26213;52.446;20.706;2023-04-26T12:32:39;11.00;;;3.70;;
40511;SDS011;26213;52.446;20.706;2023-04-26T12:35:05;14.50;;;5.45;;
40511;SDS011;26213;52.446;20.706;2023-04-26T12:37:31;9.45;;;4.88;;
40511;SDS011;26213;52.446;20.706;2023-04-26T12:39:56;12.60;;;3.97;;
40511;SDS011;26213;52.446;20.706;2023-04-26T12:42:22;9.52;;;3.45;;
40511;SDS011;26213;52.446;20.706;2023-04-26T12:44:47;11.32;;;4.03;;
40511;SDS011;26213;52.446;20.706;2023-04-26T12:47:13;16.25;;;3.97;;
40511;SDS011;26213;52.446;20.706;2023-04-26T12:49:38;9.35;;;4.28;;
40511;SDS011;26213;52.446;20.706;2023-04-26T12:52:04;12.23;;;5.28;;
40511;SDS011;26213;52.446;20.706;2023-04-26T12:54:30;8.75;;;4.13;;
40511;SDS011;26213;52.446;20.706;2023-04-26T12:56:56;14.88;;;5.70;;
40511;SDS011;26213;52.446;20.706;2023-04-26T12:59:21;14.30;;;4.97;;
40511;SDS011;26213;52.446;20.706;2023-04-26T13:01:46;15.05;;;5.55;;
40511;SDS011;26213;52.446;20.706;2023-04-26T13:04:12;20.33;;;9.02;;
40511;SDS011;26213;52.446;20.706;2023-04-26T13:06:37;15.85;;;7.68;;
40511;SDS011;26213;52.446;20.706;2023-04-26T13:09:03;11.25;;;3.47;;
40511;SDS011;26213;52.446;20.706;2023-04-26T13:11:28;18.42;;;6.63;;
40511;SDS011;26213;52.446;20.706;2023-04-26T13:13:53;12.25;;;5.05;;
40511;SDS011;26213;52.446;20.706;2023-04-26T13:16:19;8.98;;;3.85;;
40511;SDS011;26213;52.446;20.706;2023-04-26T13:18:44;12.88;;;4.68;;
40511;SDS011;26213;52.446;20.706;2023-04-26T13:21:10;24.55;;;14.43;;
40511;SDS011;26213;52.446;20.706;2023-04-26T13:23:35;8.73;;;3.47;;
40511;SDS011;26213;52.446;20.706;2023-04-26T13:26:01;16.27;;;4.20;;
40511;SDS011;26213;52.446;20.706;2023-04-26T13:28:26;9.27;;;4.95;;
40511;SDS011;26213;52.446;20.706;2023-04-26T13:30:52;9.95;;;4.93;;
40511;SDS011;26213;52.446;20.706;2023-04-26T13:33:17;9.68;;;4.18;;
40511;SDS011;26213;52.446;20.706;2023-04-26T13:35:43;10.77;;;5.05;;
40511;SDS011;26213;52.446;20.706;2023-04-26T13:38:08;11.20;;;4.95;;
40511;SDS011;26213;52.446;20.706;2023-04-26T13:40:35;16.15;;;6.32;;
40511;SDS011;26213;52.446;20.706;2023-04-26T13:43:01;10.57;;;5.17;;
40511;SDS011;26213;52.446;20.706;2023-04-26T13:45:26;16.73;;;6.65;;
40511;SDS011;26213;52.446;20.706;2023-04-26T13:47:52;14.45;;;5.45;;
40511;SDS011;26213;52.446;20.706;2023-04-26T13:50:17;11.95;;;4.97;;
40511;SDS011;26213;52.446;20.706;2023-04-26T13:52:43;19.80;;;9.30;;
40511;SDS011;26213;52.446;20.706;2023-04-26T13:55:08;28.80;;;15.05;;
40511;SDS011;26213;52.446;20.706;2023-04-26T13:57:34;17.20;;;6.88;;
40511;SDS011;26213;52.446;20.706;2023-04-26T14:00:00;21.45;;;8.02;;
40511;SDS011;26213;52.446;20.706;2023-04-26T14:02:25;21.40;;;8.52;;
40511;SDS011;26213;52.446;20.706;2023-04-26T14:04:51;19.00;;;7.28;;
40511;SDS011;26213;52.446;20.706;2023-04-26T14:07:16;13.73;;;4.80;;
40511;SDS011;26213;52.446;20.706;2023-04-26T14:09:42;7.95;;;4.05;;
40511;SDS011;26213;52.446;20.706;2023-04-26T14:12:07;12.40;;;4.05;;
40511;SDS011;26213;52.446;20.706;2023-04-26T14:14:33;12.88;;;4.93;;
40511;SDS011;26213;52.446;20.706;2023-04-26T14:16:59;10.30;;;4.20;;
40511;SDS011;26213;52.446;20.706;2023-04-26T14:19:24;9.40;;;3.53;;
40511;SDS011;26213;52.446;20.706;2023-04-26T14:21:50;8.35;;;3.75;;
40511;SDS011;26213;52.446;20.706;2023-04-26T14:24:16;9.32;;;3.28;;
40511;SDS011;26213;52.446;20.706;2023-04-26T14:26:41;9.50;;;3.20;;
40511;SDS011;26213;52.446;20.706;2023-04-26T14:29:06;8.60;;;3.83;;
40511;SDS011;26213;52.446;20.706;2023-04-26T14:31:32;8.25;;;3.53;;
40511;SDS011;26213;52.446;20.706;2023-04-26T14:33:57;10.43;;;3.42;;
40511;SDS011;26213;52.446;20.706;2023-04-26T14:36:23;10.82;;;3.28;;
40511;SDS011;26213;52.446;20.706;2023-04-26T14:38:48;10.18;;;3.10;;